TAF KBBD
KBBD 280530Z 2806/2906 24005KT P6SM OVC100 FM281000 32006KT 5SM BR SCT015 FM281400 34009KT P6SM SCT250=
METAR KBBD
WC KBBD
WS KBBD
WV KBBD